createdAt,value
2018-02-21T05:00:46.246Z,0
2018-02-21T05:01:11.785Z,0
2018-02-21T05:01:37.244Z,0
2018-02-21T05:02:02.737Z,0
2018-02-21T05:02:28.238Z,0
2018-02-21T05:02:53.745Z,0
2018-02-21T05:03:19.209Z,0
2018-02-21T05:03:44.883Z,0
2018-02-21T05:04:10.403Z,0
2018-02-21T05:04:35.841Z,0
2018-02-21T05:05:01.451Z,0
2018-02-21T05:05:27.006Z,0
2018-02-21T05:05:52.471Z,0
2018-02-21T05:06:18.055Z,0
2018-02-21T05:06:43.621Z,0
2018-02-21T05:07:09.012Z,0
2018-02-21T05:07:34.483Z,0
2018-02-21T05:07:59.992Z,0
2018-02-21T05:09:14.118Z,0
2018-02-21T05:09:39.631Z,0
2018-02-21T05:10:05.138Z,0
2018-02-21T05:10:30.719Z,0
2018-02-21T05:10:56.116Z,0
2018-02-21T05:11:21.613Z,0
2018-02-21T05:11:47.320Z,0
2018-02-21T05:12:13.099Z,0
2018-02-21T05:12:38.673Z,0
2018-02-21T05:13:04.178Z,0
2018-02-21T05:13:29.636Z,0
2018-02-21T05:13:55.106Z,0
2018-02-21T05:14:20.604Z,0
2018-02-21T05:14:46.083Z,0
2018-02-21T05:15:11.545Z,0
2018-02-21T05:15:37.037Z,0
2018-02-21T05:16:02.522Z,0
2018-02-21T05:16:28.068Z,0
2018-02-21T05:16:53.554Z,0
2018-02-21T05:17:19.079Z,0
2018-02-21T05:17:44.543Z,0
2018-02-21T05:18:10.059Z,0
2018-02-21T05:18:35.510Z,0
2018-02-21T05:19:00.990Z,0
2018-02-21T05:19:26.518Z,0
2018-02-21T05:19:52.070Z,0
2018-02-21T05:20:17.520Z,0
2018-02-21T05:21:26.639Z,0
2018-02-21T05:21:52.138Z,0
2018-02-21T05:22:17.627Z,0
2018-02-21T05:22:43.096Z,0
2018-02-21T05:23:08.688Z,0
2018-02-21T05:23:34.128Z,0
2018-02-21T05:23:59.592Z,0
2018-02-21T05:24:25.100Z,0
2018-02-21T05:24:50.580Z,0
2018-02-21T05:25:16.109Z,0
2018-02-21T05:25:41.617Z,0
2018-02-21T05:26:07.077Z,0
2018-02-21T05:26:32.537Z,0
2018-02-21T05:26:58.009Z,0
2018-02-21T05:27:23.489Z,0
2018-02-21T05:27:48.969Z,0
2018-02-21T05:28:14.467Z,0
2018-02-21T05:28:39.957Z,0
2018-02-21T05:29:05.466Z,0
2018-02-21T05:29:30.953Z,0
2018-02-21T05:29:56.460Z,0
2018-02-21T05:30:21.933Z,0
2018-02-21T05:30:47.426Z,0
2018-02-21T05:31:12.914Z,0
2018-02-21T05:31:38.424Z,0
2018-02-21T05:32:03.916Z,0
2018-02-21T05:32:29.401Z,0
2018-02-21T05:32:54.857Z,0
2018-02-21T05:33:20.430Z,0
2018-02-21T05:33:45.977Z,0
2018-02-21T05:34:11.430Z,0
2018-02-21T05:34:36.901Z,0
2018-02-21T05:35:02.391Z,0
2018-02-21T05:35:27.913Z,0
2018-02-21T05:35:53.473Z,0
2018-02-21T05:36:19.000Z,0
2018-02-21T05:36:44.468Z,0
2018-02-21T05:37:09.966Z,0
2018-02-21T05:37:35.419Z,0
2018-02-21T05:38:01.015Z,0
2018-02-21T05:38:26.517Z,0
2018-02-21T05:38:52.017Z,0
2018-02-21T05:39:17.600Z,0
2018-02-21T05:39:43.230Z,0
2018-02-21T05:40:08.736Z,0
2018-02-21T05:40:34.208Z,0
2018-02-21T05:40:59.752Z,0
2018-02-21T05:41:25.281Z,0
2018-02-21T05:41:50.777Z,0
2018-02-21T05:42:16.246Z,0
2018-02-21T05:42:41.771Z,0
2018-02-21T05:43:07.262Z,0
2018-02-21T05:43:32.732Z,0
2018-02-21T05:43:58.199Z,0
2018-02-21T05:44:23.664Z,0
2018-02-21T05:44:49.143Z,0
2018-02-21T05:45:14.655Z,0
2018-02-21T05:45:40.135Z,0
2018-02-21T05:46:05.614Z,0
2018-02-21T05:46:31.105Z,0
2018-02-21T05:46:56.589Z,0
2018-02-21T05:47:22.143Z,0
2018-02-21T05:47:47.586Z,0
2018-02-21T05:48:13.178Z,0
2018-02-21T05:48:38.770Z,0
2018-02-21T05:49:04.178Z,0
2018-02-21T05:49:29.657Z,0
2018-02-21T05:49:55.194Z,0
2018-02-21T05:50:20.828Z,0
2018-02-21T05:50:46.311Z,0
2018-02-21T05:51:11.773Z,0
2018-02-21T05:51:37.229Z,0
2018-02-21T05:52:02.685Z,0
2018-02-21T05:52:28.232Z,0
2018-02-21T05:53:31.835Z,0
2018-02-21T05:53:57.408Z,0
2018-02-21T05:54:22.895Z,0
2018-02-21T05:54:48.356Z,0
2018-02-21T05:55:13.816Z,0
2018-02-21T05:55:39.312Z,0
2018-02-21T05:56:04.890Z,0
2018-02-21T05:56:30.253Z,0
2018-02-21T05:56:55.724Z,0
2018-02-21T05:57:21.227Z,0
2018-02-21T05:57:46.670Z,0
2018-02-21T05:58:12.183Z,0
2018-02-21T05:58:37.698Z,0
2018-02-21T06:00:01.674Z,4
2018-02-21T06:00:27.099Z,4
2018-02-21T06:00:52.645Z,4
2018-02-21T06:01:18.088Z,0
2018-02-21T06:01:43.530Z,0
2018-02-21T06:02:08.963Z,0
2018-02-21T06:02:34.505Z,4
2018-02-21T06:03:00.084Z,4
2018-02-21T06:03:25.513Z,4
2018-02-21T06:03:51.047Z,4
2018-02-21T06:04:16.630Z,4
2018-02-21T06:04:42.075Z,4
2018-02-21T06:05:07.595Z,4
2018-02-21T06:05:33.048Z,4
2018-02-21T06:05:58.656Z,4
2018-02-21T06:06:24.069Z,4
2018-02-21T06:06:49.542Z,4
2018-02-21T06:07:15.045Z,8
2018-02-21T06:07:40.518Z,4
2018-02-21T06:08:06.025Z,8
2018-02-21T06:08:31.464Z,4
2018-02-21T06:08:56.948Z,8
2018-02-21T06:09:22.459Z,8
2018-02-21T06:09:47.933Z,8
2018-02-21T06:10:13.532Z,12
2018-02-21T06:10:39.030Z,8
2018-02-21T06:11:04.480Z,12
2018-02-21T06:11:30.009Z,12
2018-02-21T06:11:55.437Z,12
2018-02-21T06:12:20.895Z,12
2018-02-21T06:12:46.368Z,12
2018-02-21T06:13:11.831Z,16
2018-02-21T06:13:37.287Z,16
2018-02-21T06:14:02.803Z,16
2018-02-21T06:14:28.275Z,16
2018-02-21T06:14:53.774Z,20
2018-02-21T06:15:19.248Z,24
2018-02-21T06:15:44.756Z,24
2018-02-21T06:16:10.253Z,24
2018-02-21T06:16:35.761Z,28
2018-02-21T06:17:01.194Z,28
2018-02-21T06:17:26.695Z,28
2018-02-21T06:17:52.162Z,32
2018-02-21T06:18:17.632Z,32
2018-02-21T06:18:43.141Z,32
2018-02-21T06:19:08.647Z,36
2018-02-21T06:19:34.087Z,40
2018-02-21T06:19:59.588Z,40
2018-02-21T06:20:25.086Z,44
2018-02-21T06:20:50.579Z,44
2018-02-21T06:21:16.067Z,48
2018-02-21T06:21:41.571Z,48
2018-02-21T06:22:51.265Z,60
2018-02-21T06:23:16.763Z,60
2018-02-21T06:23:42.239Z,64
2018-02-21T06:24:07.805Z,72
2018-02-21T06:24:33.239Z,72
2018-02-21T06:24:58.745Z,76
2018-02-21T06:25:24.150Z,80
2018-02-21T06:25:49.680Z,84
2018-02-21T06:26:15.175Z,88
2018-02-21T06:26:40.651Z,96
2018-02-21T06:27:06.153Z,100
2018-02-21T06:27:31.597Z,104
2018-02-21T06:27:57.046Z,108
2018-02-21T06:28:22.824Z,112
2018-02-21T06:28:48.316Z,116
2018-02-21T06:29:13.719Z,120
2018-02-21T06:29:39.220Z,128
2018-02-21T06:30:04.683Z,132
2018-02-21T06:30:30.162Z,136
2018-02-21T06:30:55.658Z,140
2018-02-21T06:31:21.131Z,144
2018-02-21T06:31:46.617Z,148
2018-02-21T06:32:12.112Z,152
2018-02-21T06:32:37.567Z,160
2018-02-21T06:33:03.042Z,164
2018-02-21T06:33:28.541Z,172
2018-02-21T06:33:54.103Z,180
2018-02-21T06:34:19.559Z,184
2018-02-21T06:34:45.036Z,188
2018-02-21T06:35:10.497Z,196
2018-02-21T06:35:35.961Z,200
2018-02-21T06:36:01.482Z,208
2018-02-21T06:36:26.995Z,216
2018-02-21T06:36:52.474Z,224
2018-02-21T06:37:17.990Z,228
2018-02-21T06:37:43.483Z,236
2018-02-21T06:38:08.952Z,244
2018-02-21T06:38:34.481Z,252
2018-02-21T06:39:00.082Z,260
2018-02-21T06:39:25.529Z,264
2018-02-21T06:39:51.052Z,272
2018-02-21T06:40:16.546Z,280
2018-02-21T06:40:42.036Z,288
2018-02-21T06:41:07.561Z,296
2018-02-21T06:41:33.055Z,300
2018-02-21T06:41:58.526Z,312
2018-02-21T06:42:24.024Z,316
2018-02-21T06:43:28.046Z,336
2018-02-21T06:43:53.490Z,352
2018-02-21T06:44:18.945Z,360
2018-02-21T06:44:44.455Z,368
2018-02-21T06:45:09.912Z,380
2018-02-21T06:45:35.425Z,388
2018-02-21T06:46:00.926Z,392
2018-02-21T06:46:26.392Z,400
2018-02-21T06:46:51.931Z,408
2018-02-21T06:47:18.365Z,416
2018-02-21T06:47:43.849Z,424
2018-02-21T06:48:09.378Z,440
2018-02-21T06:48:34.848Z,452
2018-02-21T06:49:00.356Z,468
2018-02-21T06:49:25.797Z,480
2018-02-21T06:49:51.322Z,496
2018-02-21T06:50:16.800Z,508
2018-02-21T06:50:42.299Z,520
2018-02-21T06:51:07.854Z,536
2018-02-21T06:51:33.404Z,548
2018-02-21T06:51:58.853Z,560
2018-02-21T06:52:24.313Z,576
2018-02-21T06:52:49.788Z,588
2018-02-21T06:53:15.265Z,600
2018-02-21T06:53:40.735Z,616
2018-02-21T06:54:06.245Z,632
2018-02-21T06:54:31.777Z,644
2018-02-21T06:54:57.284Z,656
2018-02-21T06:56:11.041Z,688
2018-02-21T06:56:36.538Z,704
2018-02-21T06:57:02.065Z,712
2018-02-21T06:57:27.525Z,720
2018-02-21T06:58:51.465Z,756
2018-02-21T06:59:16.945Z,764
2018-02-21T06:59:42.473Z,772
2018-02-21T07:00:07.892Z,780
2018-02-21T07:00:33.372Z,792
2018-02-21T07:00:58.809Z,804
2018-02-21T07:01:24.361Z,816
2018-02-21T07:01:49.866Z,832
2018-02-21T07:02:15.361Z,852
2018-02-21T07:02:40.977Z,868
2018-02-21T07:03:06.408Z,892
2018-02-21T07:03:31.915Z,916
2018-02-21T07:03:57.403Z,940
2018-02-21T07:04:22.872Z,964
2018-02-21T07:04:48.348Z,984
2018-02-21T07:05:13.832Z,1008
2018-02-21T07:05:39.286Z,1028
2018-02-21T07:06:04.776Z,1044
2018-02-21T07:06:30.244Z,1064
2018-02-21T07:06:55.747Z,1072
2018-02-21T07:07:21.285Z,1092
2018-02-21T07:07:46.771Z,1104
2018-02-21T07:08:12.253Z,1116
2018-02-21T07:08:37.752Z,1128
2018-02-21T07:09:03.258Z,1144
2018-02-21T07:09:28.733Z,1156
2018-02-21T07:09:54.212Z,1168
2018-02-21T07:10:19.672Z,1180
2018-02-21T07:10:45.158Z,1192
2018-02-21T07:11:10.710Z,1204
2018-02-21T07:11:36.121Z,1216
2018-02-21T07:12:01.605Z,1228
2018-02-21T07:12:27.123Z,1240
2018-02-21T07:12:52.582Z,1256
2018-02-21T07:13:18.056Z,1268
2018-02-21T07:13:43.546Z,1284
2018-02-21T07:14:09.025Z,1296
2018-02-21T07:14:34.533Z,1312
2018-02-21T07:15:00.007Z,1320
2018-02-21T07:15:25.545Z,1328
2018-02-21T07:15:50.990Z,1340
2018-02-21T07:16:16.535Z,1352
2018-02-21T07:17:25.144Z,1372
2018-02-21T07:17:50.621Z,1384
2018-02-21T07:18:16.155Z,1400
2018-02-21T07:18:41.678Z,1408
2018-02-21T07:19:07.109Z,1420
2018-02-21T07:19:32.576Z,1428
2018-02-21T07:19:58.081Z,1440
2018-02-21T07:20:23.559Z,1452
2018-02-21T07:20:49.086Z,1464
2018-02-21T07:21:14.571Z,1476
2018-02-21T07:21:40.096Z,1484
2018-02-21T07:22:05.570Z,1492
2018-02-21T07:22:31.063Z,1500
2018-02-21T07:22:56.524Z,1508
2018-02-21T07:23:22.023Z,1520
2018-02-21T07:23:47.506Z,1524
2018-02-21T07:24:12.932Z,1536
2018-02-21T07:24:38.375Z,1548
2018-02-21T07:25:03.911Z,1556
2018-02-21T07:25:29.350Z,1564
2018-02-21T07:25:54.894Z,1572
2018-02-21T07:26:20.430Z,1584
2018-02-21T07:26:45.892Z,1592
2018-02-21T07:27:11.363Z,1600
2018-02-21T07:27:36.862Z,1608
2018-02-21T07:28:02.319Z,1616
2018-02-21T07:28:27.758Z,1628
2018-02-21T07:28:53.251Z,1636
2018-02-21T07:29:18.804Z,1640
2018-02-21T07:29:44.239Z,1652
2018-02-21T07:30:58.041Z,1668
2018-02-21T07:31:23.457Z,1676
2018-02-21T07:31:48.968Z,1688
2018-02-21T07:32:14.467Z,1696
2018-02-21T07:32:39.943Z,1704
2018-02-21T07:33:05.417Z,1708
2018-02-21T07:33:30.931Z,1720
2018-02-21T07:33:56.380Z,1724
2018-02-21T07:34:21.867Z,1736
2018-02-21T07:34:47.370Z,1744
2018-02-21T07:35:12.857Z,1760
2018-02-21T07:35:38.366Z,1772
2018-02-21T07:36:03.878Z,1780
2018-02-21T07:36:29.369Z,1792
2018-02-21T07:36:54.845Z,1804
2018-02-21T07:37:20.338Z,1812
2018-02-21T07:37:45.795Z,1832
2018-02-21T07:38:11.296Z,1848
2018-02-21T07:38:36.804Z,1864
2018-02-21T07:39:02.328Z,1876
2018-02-21T07:39:27.842Z,1892
2018-02-21T07:39:53.334Z,1900
2018-02-21T07:40:18.836Z,1912
2018-02-21T07:40:44.308Z,1924
2018-02-21T07:42:03.234Z,1948
2018-02-21T07:42:28.743Z,1956
2018-02-21T07:42:54.237Z,1964
2018-02-21T07:43:19.752Z,1972
2018-02-21T07:43:45.232Z,1980
2018-02-21T07:44:10.802Z,1992
2018-02-21T07:44:36.262Z,2004
2018-02-21T07:45:01.756Z,2016
2018-02-21T07:45:27.222Z,2024
2018-02-21T07:45:52.716Z,2032
2018-02-21T07:46:18.194Z,2036
2018-02-21T07:46:43.662Z,2044
2018-02-21T07:47:09.141Z,2052
2018-02-21T07:47:34.602Z,2060
2018-02-21T07:48:00.044Z,2060
2018-02-21T07:48:25.558Z,2072
2018-02-21T07:48:50.982Z,2080
2018-02-21T07:49:16.501Z,2088
2018-02-21T07:49:41.931Z,2088
2018-02-21T07:50:07.428Z,2092
2018-02-21T07:51:31.393Z,2132
2018-02-21T07:51:56.880Z,2136
2018-02-21T07:52:22.402Z,2148
2018-02-21T07:52:47.879Z,2152
2018-02-21T07:53:13.377Z,2160
2018-02-21T07:53:38.879Z,2164
2018-02-21T07:54:04.371Z,2172
2018-02-21T07:54:29.852Z,2180
2018-02-21T07:54:55.363Z,2180
2018-02-21T07:55:20.850Z,2180
2018-02-21T07:55:46.282Z,2192
2018-02-21T07:56:11.832Z,2200
2018-02-21T07:56:37.294Z,2200
2018-02-21T07:57:02.770Z,2200
2018-02-21T07:57:28.249Z,2204
2018-02-21T07:57:53.714Z,2208
2018-02-21T07:58:19.183Z,2220
2018-02-21T07:58:44.675Z,2224
2018-02-21T07:59:10.159Z,2232
2018-02-21T07:59:35.736Z,2232
2018-02-21T08:00:01.129Z,2220
2018-02-21T08:00:26.575Z,2236
2018-02-21T08:00:52.083Z,2240
2018-02-21T08:01:17.538Z,2244
2018-02-21T08:02:21.190Z,2256
2018-02-21T08:02:46.672Z,2260
2018-02-21T08:03:12.150Z,2260
2018-02-21T08:03:37.658Z,2272
2018-02-21T08:04:03.143Z,2280
2018-02-21T08:04:28.590Z,2292
2018-02-21T08:04:54.107Z,2300
2018-02-21T08:05:19.570Z,2300
2018-02-21T08:05:45.084Z,2312
2018-02-21T08:06:10.536Z,2324
2018-02-21T08:06:36.057Z,2328
2018-02-21T08:07:54.936Z,2368
2018-02-21T08:08:20.421Z,2372
2018-02-21T08:08:45.902Z,2376
2018-02-21T08:09:11.390Z,2392
2018-02-21T08:09:36.876Z,2404
2018-02-21T08:10:02.373Z,2412
2018-02-21T08:10:27.961Z,2408
2018-02-21T08:10:53.351Z,2412
2018-02-21T08:11:18.821Z,2420
2018-02-21T08:11:44.332Z,2440
2018-02-21T08:12:09.771Z,2452
2018-02-21T08:12:35.284Z,2464
2018-02-21T08:13:00.745Z,2472
2018-02-21T08:13:26.231Z,2492
2018-02-21T08:13:51.702Z,2508
2018-02-21T08:14:17.213Z,2528
2018-02-21T08:14:42.715Z,2540
2018-02-21T08:15:08.284Z,2548
2018-02-21T08:15:33.772Z,2564
2018-02-21T08:15:59.264Z,2584
2018-02-21T08:16:24.739Z,2612
2018-02-21T08:16:50.222Z,2636
2018-02-21T08:17:15.705Z,2656
2018-02-21T08:17:41.188Z,2668
2018-02-21T08:18:06.658Z,2688
2018-02-21T08:18:32.131Z,2712
2018-02-21T08:18:57.607Z,2732
2018-02-21T08:19:23.171Z,2744
2018-02-21T08:19:48.660Z,2756
2018-02-21T08:20:14.201Z,2768
2018-02-21T08:20:39.706Z,2784
2018-02-21T08:21:05.191Z,2792
2018-02-21T08:21:30.715Z,2808
2018-02-21T08:21:56.185Z,2828
2018-02-21T08:22:21.659Z,2844
2018-02-21T08:22:47.162Z,2864
2018-02-21T08:23:12.666Z,2884
2018-02-21T08:23:38.166Z,2916
2018-02-21T08:24:03.646Z,2928
2018-02-21T08:24:29.163Z,2952
2018-02-21T08:24:54.642Z,2976
2018-02-21T08:25:20.093Z,2996
2018-02-21T08:25:45.558Z,3008
2018-02-21T08:26:11.048Z,3028
2018-02-21T08:26:36.549Z,3060
2018-02-21T08:27:02.090Z,3096
2018-02-21T08:27:27.545Z,3120
2018-02-21T08:27:53.015Z,3136
2018-02-21T08:28:18.610Z,3140
2018-02-21T08:28:44.026Z,3136
2018-02-21T08:29:09.517Z,3132
2018-02-21T08:29:35.023Z,3112
2018-02-21T08:30:00.506Z,3108
2018-02-21T08:30:25.964Z,3112
2018-02-21T08:30:51.459Z,3120
2018-02-21T08:31:16.960Z,3132
2018-02-21T08:32:25.668Z,3156
2018-02-21T08:32:51.159Z,3156
2018-02-21T08:33:16.620Z,3164
2018-02-21T08:33:42.108Z,3172
2018-02-21T08:34:07.594Z,3176
2018-02-21T08:34:33.068Z,3184
2018-02-21T08:34:58.560Z,3192
2018-02-21T08:35:24.030Z,3196
2018-02-21T08:35:49.505Z,3216
2018-02-21T08:36:14.969Z,3224
2018-02-21T08:36:40.468Z,3236
2018-02-21T08:37:05.977Z,3248
2018-02-21T08:37:31.487Z,3268
2018-02-21T08:37:56.958Z,3276
2018-02-21T08:39:10.771Z,3264
2018-02-21T08:39:36.297Z,3276
2018-02-21T08:40:01.762Z,3312
2018-02-21T08:40:27.258Z,3340
2018-02-21T08:40:52.776Z,3368
2018-02-21T08:41:18.268Z,3396
2018-02-21T08:41:43.794Z,3416
2018-02-21T08:42:09.253Z,3444
2018-02-21T08:42:34.724Z,3444
2018-02-21T08:43:00.205Z,3452
2018-02-21T08:43:25.639Z,3468
2018-02-21T08:43:51.132Z,3492
2018-02-21T08:44:16.594Z,3504
2018-02-21T08:44:42.091Z,3504
2018-02-21T08:45:55.877Z,3408
2018-02-21T08:46:21.390Z,3392
2018-02-21T08:46:46.838Z,3388
2018-02-21T08:47:12.294Z,3388
2018-02-21T08:47:37.762Z,3412
2018-02-21T08:48:03.276Z,3452
2018-02-21T08:48:28.818Z,3500
2018-02-21T08:48:54.285Z,3540
2018-02-21T08:49:19.741Z,3540
2018-02-21T08:49:45.267Z,3484
2018-02-21T08:50:10.785Z,3408
2018-02-21T08:50:36.330Z,3320
2018-02-21T08:51:01.801Z,3268
2018-02-21T08:51:27.324Z,3232
2018-02-21T08:51:52.787Z,3224
2018-02-21T08:52:18.257Z,3212
2018-02-21T08:52:43.769Z,3200
2018-02-21T08:53:09.227Z,3196
2018-02-21T08:53:34.725Z,3196
2018-02-21T08:54:53.660Z,3216
2018-02-21T08:55:19.152Z,3220
2018-02-21T08:55:44.701Z,3224
2018-02-21T08:56:10.125Z,3220
2018-02-21T08:56:35.609Z,3216
2018-02-21T08:57:01.093Z,3224
2018-02-21T08:57:26.627Z,3220
2018-02-21T08:57:52.125Z,3224
2018-02-21T08:58:17.654Z,3224
2018-02-21T08:58:43.138Z,3208
2018-02-21T08:59:08.607Z,3192
2018-02-21T08:59:34.118Z,3176
2018-02-21T08:59:59.596Z,3164
2018-02-21T09:00:25.070Z,3148
2018-02-21T09:00:50.539Z,3132
2018-02-21T09:01:16.040Z,3112
2018-02-21T09:01:41.529Z,3096
2018-02-21T09:02:06.988Z,3084
2018-02-21T09:02:32.455Z,3064
2018-02-21T09:02:57.910Z,3068
2018-02-21T09:03:23.408Z,3064
2018-02-21T09:03:48.897Z,3064
2018-02-21T09:04:14.378Z,3064
2018-02-21T09:04:39.894Z,3068
2018-02-21T09:05:05.361Z,3072
2018-02-21T09:05:30.860Z,3064
2018-02-21T09:05:56.319Z,3060
2018-02-21T09:06:21.820Z,3056
2018-02-21T09:06:47.281Z,3060
2018-02-21T09:07:12.810Z,3064
2018-02-21T09:07:38.311Z,3064
2018-02-21T09:08:03.785Z,3064
2018-02-21T09:08:29.250Z,3048
2018-02-21T09:08:54.704Z,3044
2018-02-21T09:09:20.211Z,3056
2018-02-21T09:09:45.710Z,3064
2018-02-21T09:10:11.236Z,3052
2018-02-21T09:10:36.739Z,3048
2018-02-21T09:11:02.276Z,3048
2018-02-21T09:11:27.798Z,3040
2018-02-21T09:11:53.277Z,3048
2018-02-21T09:12:18.752Z,3048
2018-02-21T09:12:44.224Z,3040
2018-02-21T09:13:09.741Z,3044
2018-02-21T09:13:35.239Z,3040
2018-02-21T09:14:00.722Z,3044
2018-02-21T09:14:26.224Z,3048
2018-02-21T09:15:29.827Z,3056
2018-02-21T09:15:55.332Z,3060
2018-02-21T09:16:20.813Z,3056
2018-02-21T09:16:46.278Z,3060
2018-02-21T09:17:11.807Z,3060
2018-02-21T09:17:37.285Z,3072
2018-02-21T09:18:02.765Z,3068
2018-02-21T09:18:28.262Z,3076
2018-02-21T09:18:53.755Z,3076
2018-02-21T09:19:19.243Z,3064
2018-02-21T09:19:44.754Z,3060
2018-02-21T09:20:10.269Z,3068
2018-02-21T09:20:35.727Z,3060
2018-02-21T09:21:01.173Z,3056
2018-02-21T09:21:26.666Z,3060
2018-02-21T09:21:52.160Z,3048
2018-02-21T09:22:17.630Z,3040
2018-02-21T09:22:43.175Z,3044
2018-02-21T09:23:08.708Z,3040
2018-02-21T09:23:34.136Z,3044
2018-02-21T09:23:59.656Z,3036
2018-02-21T09:24:25.128Z,3036
2018-02-21T09:24:50.650Z,3048
2018-02-21T09:25:16.130Z,3060
2018-02-21T09:25:41.617Z,3064
2018-02-21T09:26:07.117Z,3072
2018-02-21T09:26:32.614Z,3068
2018-02-21T09:26:58.168Z,3060
2018-02-21T09:27:23.646Z,3048
2018-02-21T09:27:49.140Z,3036
2018-02-21T09:28:14.591Z,3024
2018-02-21T09:28:40.158Z,3032
2018-02-21T09:29:05.612Z,3040
2018-02-21T09:29:31.139Z,3044
2018-02-21T09:29:56.587Z,3044
2018-02-21T09:31:00.190Z,3064
2018-02-21T09:31:25.669Z,3060
2018-02-21T09:31:51.165Z,3060
2018-02-21T09:32:16.649Z,3064
2018-02-21T09:32:42.113Z,3064
2018-02-21T09:33:07.607Z,3068
2018-02-21T09:33:33.216Z,3064
2018-02-21T09:33:58.824Z,3072
2018-02-21T09:34:24.304Z,3072
2018-02-21T09:34:49.790Z,3072
2018-02-21T09:35:15.278Z,3076
2018-02-21T09:35:40.727Z,3068
2018-02-21T09:36:06.200Z,3080
2018-02-21T09:37:30.250Z,3084
2018-02-21T09:37:55.728Z,3076
2018-02-21T09:38:21.258Z,3072
2018-02-21T09:38:46.735Z,3080
2018-02-21T09:39:12.214Z,3084
2018-02-21T09:39:37.743Z,3084
2018-02-21T09:40:03.264Z,3084
2018-02-21T09:40:28.722Z,3080
2018-02-21T09:40:54.234Z,3088
2018-02-21T09:41:19.642Z,3092
2018-02-21T09:41:45.105Z,3092
2018-02-21T09:42:10.600Z,3088
2018-02-21T09:42:36.098Z,3088
2018-02-21T09:43:01.583Z,3084
2018-02-21T09:43:27.075Z,3080
2018-02-21T09:43:52.585Z,3076
2018-02-21T09:44:18.082Z,3068
2018-02-21T09:44:43.510Z,3072
2018-02-21T09:45:08.981Z,3068
2018-02-21T09:45:34.467Z,3076
2018-02-21T09:45:59.982Z,3080
2018-02-21T09:46:25.483Z,3088
2018-02-21T09:46:50.924Z,3096
2018-02-21T09:47:16.434Z,3100
2018-02-21T09:47:41.896Z,3096
2018-02-21T09:48:07.365Z,3088
2018-02-21T09:48:32.862Z,3084
2018-02-21T09:48:58.374Z,3072
2018-02-21T09:49:23.873Z,3072
2018-02-21T09:49:49.473Z,3072
2018-02-21T09:50:14.947Z,3076
2018-02-21T09:50:40.479Z,3072
2018-02-21T09:51:05.966Z,3076
2018-02-21T09:51:31.427Z,3080
2018-02-21T09:51:56.915Z,3076
2018-02-21T09:52:22.382Z,3072
2018-02-21T09:52:47.876Z,3056
2018-02-21T09:53:13.356Z,3044
2018-02-21T09:53:38.830Z,3048
2018-02-21T09:54:04.263Z,3048
2018-02-21T09:54:29.757Z,3052
2018-02-21T09:54:55.256Z,3056
2018-02-21T09:55:20.779Z,3052
2018-02-21T09:55:46.310Z,3048
2018-02-21T09:56:11.810Z,3044
2018-02-21T09:56:37.294Z,3044
2018-02-21T09:57:40.937Z,3024
2018-02-21T09:58:06.436Z,3024
2018-02-21T09:58:31.901Z,3024
2018-02-21T09:58:57.375Z,3028
2018-02-21T09:59:22.891Z,3016
2018-02-21T09:59:48.373Z,3012
2018-02-21T10:00:13.898Z,3008
2018-02-21T10:00:39.394Z,3000
2018-02-21T10:01:04.921Z,3000
2018-02-21T10:01:30.411Z,2988
2018-02-21T10:01:55.907Z,2992
2018-02-21T10:02:21.360Z,2992
2018-02-21T10:02:46.874Z,2984
2018-02-21T10:03:12.396Z,2980
2018-02-21T10:03:37.898Z,2980
2018-02-21T10:04:03.379Z,2980
2018-02-21T10:04:28.871Z,2980
2018-02-21T10:04:54.374Z,2968
2018-02-21T10:05:19.873Z,2964
2018-02-21T10:05:45.366Z,2960
2018-02-21T10:06:10.884Z,2960
2018-02-21T10:06:36.340Z,2960
2018-02-21T10:07:01.810Z,2968
2018-02-21T10:07:27.275Z,2964
2018-02-21T10:07:52.785Z,2964
2018-02-21T10:08:18.297Z,2960
2018-02-21T10:08:43.777Z,2956
2018-02-21T10:09:09.230Z,2944
2018-02-21T10:09:34.730Z,2940
2018-02-21T10:10:00.241Z,2944
2018-02-21T10:10:25.742Z,2944
2018-02-21T10:10:51.256Z,2948
2018-02-21T10:11:16.752Z,2948
2018-02-21T10:11:42.272Z,2952
2018-02-21T10:12:07.745Z,2956
2018-02-21T10:12:33.294Z,2956
2018-02-21T10:12:58.740Z,2964
2018-02-21T10:14:02.360Z,2984
2018-02-21T10:14:27.819Z,2984
2018-02-21T10:14:53.306Z,2984
2018-02-21T10:15:18.804Z,2984
2018-02-21T10:15:44.307Z,2980
2018-02-21T10:17:03.225Z,2952
2018-02-21T10:17:28.730Z,2956
2018-02-21T10:17:54.243Z,2960
2018-02-21T10:18:19.761Z,2972
2018-02-21T10:18:45.231Z,2984
2018-02-21T10:19:10.752Z,2992
2018-02-21T10:19:36.236Z,2996
2018-02-21T10:20:01.721Z,2992
2018-02-21T10:20:27.225Z,2984
2018-02-21T10:21:51.233Z,2988
2018-02-21T10:22:16.737Z,2988
2018-02-21T10:22:42.223Z,2980
2018-02-21T10:23:07.779Z,2980
2018-02-21T10:23:33.285Z,2988
2018-02-21T10:23:58.748Z,2984
2018-02-21T10:24:24.260Z,2984
2018-02-21T10:24:49.734Z,2992
2018-02-21T10:25:15.222Z,2992
2018-02-21T10:25:40.723Z,2984
2018-02-21T10:26:06.174Z,2976
2018-02-21T10:26:31.659Z,2972
2018-02-21T10:26:57.155Z,2968
2018-02-21T10:27:22.638Z,2980
2018-02-21T10:27:48.151Z,2976
2018-02-21T10:28:13.680Z,2972
2018-02-21T10:28:39.152Z,2968
2018-02-21T10:29:04.638Z,2964
2018-02-21T10:29:30.122Z,2956
2018-02-21T10:30:49.015Z,2964
2018-02-21T10:31:14.519Z,2972
2018-02-21T10:31:40.013Z,2980
2018-02-21T10:32:05.477Z,2988
2018-02-21T10:32:30.979Z,2984
2018-02-21T10:32:56.492Z,2996
2018-02-21T10:33:21.988Z,3000
2018-02-21T10:33:47.449Z,3012
2018-02-21T10:34:12.904Z,3016
2018-02-21T10:34:38.378Z,3016
2018-02-21T10:35:03.899Z,3004
2018-02-21T10:35:29.393Z,2984
2018-02-21T10:35:54.895Z,2972
2018-02-21T10:36:20.373Z,2968
2018-02-21T10:36:45.855Z,2980
2018-02-21T10:37:11.342Z,2976
2018-02-21T10:37:36.847Z,2964
2018-02-21T10:38:02.368Z,2964
2018-02-21T10:38:27.862Z,2976
2018-02-21T10:38:53.363Z,2988
2018-02-21T10:39:18.828Z,2992
2018-02-21T10:39:44.324Z,3000
2018-02-21T10:40:09.852Z,3008
2018-02-21T10:40:35.310Z,3000
2018-02-21T10:41:00.874Z,2992
2018-02-21T10:41:26.334Z,2980
2018-02-21T10:41:51.837Z,2960
2018-02-21T10:42:17.297Z,2948
2018-02-21T10:42:42.747Z,2936
2018-02-21T10:43:08.251Z,2940
2018-02-21T10:43:33.726Z,2936
2018-02-21T10:43:59.172Z,2928
2018-02-21T10:44:24.680Z,2916
2018-02-21T10:44:50.160Z,2916
2018-02-21T10:45:15.620Z,2916
2018-02-21T10:45:41.124Z,2908
2018-02-21T10:46:06.575Z,2900
2018-02-21T10:46:32.090Z,2904
2018-02-21T10:46:57.586Z,2908
2018-02-21T10:47:23.069Z,2896
2018-02-21T10:47:48.558Z,2888
2018-02-21T10:48:14.031Z,2888
2018-02-21T10:48:39.499Z,2892
2018-02-21T10:49:04.984Z,2884
2018-02-21T10:49:30.471Z,2884
2018-02-21T10:49:55.957Z,2868
2018-02-21T10:50:21.467Z,2844
2018-02-21T10:50:46.971Z,2840
2018-02-21T10:52:00.859Z,2860
2018-02-21T10:52:26.323Z,2864
2018-02-21T10:52:51.826Z,2864
2018-02-21T10:53:17.305Z,2856
2018-02-21T10:53:42.816Z,2852
2018-02-21T10:54:08.327Z,2852
2018-02-21T10:54:33.810Z,2856
2018-02-21T10:54:59.378Z,2876
2018-02-21T10:55:24.866Z,2884
2018-02-21T10:55:50.400Z,2884
2018-02-21T10:56:15.883Z,2868
2018-02-21T10:56:41.358Z,2856
2018-02-21T10:57:44.981Z,2812
2018-02-21T10:58:10.479Z,2796
2018-02-21T10:58:35.962Z,2788
2018-02-21T10:59:01.484Z,2800
2018-02-21T10:59:26.988Z,2808
2018-02-21T10:59:52.516Z,2808
2018-02-21T11:00:17.997Z,2820
2018-02-21T11:00:43.479Z,2832
2018-02-21T11:01:08.944Z,2828
2018-02-21T11:01:34.422Z,2828
2018-02-21T11:01:59.890Z,2832
2018-02-21T11:02:25.384Z,2832
2018-02-21T11:02:50.870Z,2836
2018-02-21T11:03:16.360Z,2836
2018-02-21T11:03:41.852Z,2840
2018-02-21T11:04:07.365Z,2844
2018-02-21T11:04:32.831Z,2840
2018-02-21T11:04:58.373Z,2832
2018-02-21T11:05:23.801Z,2824
2018-02-21T11:05:49.288Z,2808
2018-02-21T11:06:14.753Z,2796
2018-02-21T11:06:40.260Z,2788
2018-02-21T11:07:05.743Z,2780
2018-02-21T11:07:31.227Z,2772
2018-02-21T11:07:56.696Z,2768
2018-02-21T11:08:22.212Z,2764
2018-02-21T11:09:31.876Z,2776
2018-02-21T11:09:57.396Z,2780
2018-02-21T11:10:22.859Z,2776
2018-02-21T11:10:48.328Z,2756
2018-02-21T11:11:13.848Z,2748
2018-02-21T11:11:39.327Z,2732